createdAt,value
2018-04-06T00:00:30.341Z,10.30
2018-04-06T00:02:58.749Z,10.30
2018-04-06T00:05:27.237Z,10.20
2018-04-06T00:07:55.864Z,10.00
2018-04-06T00:10:25.008Z,9.30
2018-04-06T00:12:53.881Z,9.30
2018-04-06T00:15:22.319Z,9.20
2018-04-06T00:17:50.667Z,9.20
2018-04-06T00:20:19.063Z,9.30
2018-04-06T00:22:47.697Z,9.40
2018-04-06T00:25:16.078Z,9.10
2018-04-06T00:27:44.424Z,9.20
2018-04-06T00:30:13.556Z,9.20
2018-04-06T00:32:41.931Z,9.20
2018-04-06T00:35:10.323Z,9.10
2018-04-06T00:37:38.691Z,9.00
2018-04-06T00:40:07.079Z,8.90
2018-04-06T00:42:35.491Z,8.90
2018-04-06T00:45:03.905Z,8.90
2018-04-06T00:47:32.295Z,8.90
2018-04-06T00:50:01.414Z,8.80
2018-04-06T00:52:29.788Z,8.70
2018-04-06T00:54:58.156Z,8.70
2018-04-06T00:57:26.546Z,8.80
2018-04-06T00:59:54.898Z,8.40
2018-04-06T01:02:23.900Z,8.40
2018-04-06T01:04:53.149Z,8.40
2018-04-06T01:07:21.537Z,8.30
2018-04-06T01:09:49.990Z,8.30
2018-04-06T01:12:18.435Z,8.40
2018-04-06T01:14:46.826Z,8.40
2018-04-06T01:17:15.226Z,8.40
2018-04-06T01:19:43.940Z,8.20
2018-04-06T01:22:13.082Z,7.90
2018-04-06T01:24:41.628Z,7.90
2018-04-06T01:27:10.771Z,7.90
2018-04-06T01:29:39.176Z,7.90
2018-04-06T01:32:07.532Z,7.80
2018-04-06T01:34:35.931Z,7.70
2018-04-06T01:37:04.307Z,7.70
2018-04-06T01:39:32.714Z,7.70
2018-04-06T01:42:01.844Z,7.80
2018-04-06T01:44:30.292Z,7.70
2018-04-06T01:46:59.455Z,7.50
2018-04-06T01:49:27.859Z,7.40
2018-04-06T01:51:57.078Z,7.50
2018-04-06T01:54:25.455Z,7.50
2018-04-06T01:56:53.964Z,7.60
2018-04-06T01:59:22.380Z,7.60
2018-04-06T02:01:51.516Z,7.60
2018-04-06T02:04:19.900Z,7.60
2018-04-06T02:06:48.500Z,7.40
2018-04-06T02:09:16.868Z,7.30
2018-04-06T02:11:45.252Z,7.20
2018-04-06T02:14:13.611Z,7.20
2018-04-06T02:16:42.040Z,7.00
2018-04-06T02:19:10.519Z,7.00
2018-04-06T02:21:38.907Z,7.10
2018-04-06T02:24:07.349Z,7.10
2018-04-06T02:26:35.725Z,7.00
2018-04-06T02:29:04.085Z,7.00
2018-04-06T02:31:32.474Z,7.10
2018-04-06T02:34:00.876Z,7.20
2018-04-06T02:36:29.263Z,7.10
2018-04-06T02:38:57.650Z,7.00
2018-04-06T02:41:26.090Z,7.10
2018-04-06T02:43:54.452Z,7.20
2018-04-06T02:46:22.892Z,7.20
2018-04-06T02:48:52.074Z,7.10
2018-04-06T02:51:20.463Z,7.10
2018-04-06T02:53:48.846Z,7.10
2018-04-06T02:56:18.009Z,7.20
2018-04-06T02:58:46.469Z,7.20
2018-04-06T03:01:14.877Z,7.20
2018-04-06T03:03:43.246Z,7.30
2018-04-06T03:06:11.657Z,7.40
2018-04-06T03:08:40.796Z,7.40
2018-04-06T03:11:09.404Z,7.40
2018-04-06T03:13:38.640Z,7.40
2018-04-06T03:16:08.239Z,7.40
2018-04-06T03:18:37.424Z,7.40
2018-04-06T03:21:05.825Z,7.40
2018-04-06T03:23:34.251Z,7.40
2018-04-06T03:26:02.634Z,7.30
2018-04-06T03:28:31.044Z,7.30
2018-04-06T03:30:59.464Z,7.20
2018-04-06T03:33:27.920Z,7.20
2018-04-06T03:35:57.091Z,7.20
2018-04-06T03:38:25.532Z,7.20
2018-04-06T03:40:53.912Z,7.20
2018-04-06T03:43:22.297Z,7.20
2018-04-06T03:45:50.707Z,7.20
2018-04-06T03:48:19.088Z,7.20
2018-04-06T03:50:47.564Z,7.20
2018-04-06T03:53:15.934Z,7.10
2018-04-06T03:55:44.367Z,7.10
2018-04-06T03:58:12.890Z,7.00
2018-04-06T04:00:41.282Z,6.90
2018-04-06T04:03:09.656Z,6.80
2018-04-06T04:05:39.012Z,6.80
2018-04-06T04:08:07.442Z,6.80
2018-04-06T04:10:35.835Z,6.80
2018-04-06T04:13:04.992Z,6.30
2018-04-06T04:15:33.445Z,6.30
2018-04-06T04:18:01.804Z,6.30
2018-04-06T04:20:30.313Z,6.40
2018-04-06T04:22:58.692Z,6.40
2018-04-06T04:25:27.116Z,6.50
2018-04-06T04:27:55.484Z,6.60
2018-04-06T04:30:24.276Z,6.60
2018-04-06T04:32:52.693Z,6.60
2018-04-06T04:35:21.053Z,6.60
2018-04-06T04:37:50.241Z,6.70
2018-04-06T04:40:19.389Z,6.80
2018-04-06T04:42:47.768Z,6.80
2018-04-06T04:45:16.136Z,6.80
2018-04-06T04:47:44.581Z,6.80
2018-04-06T04:50:13.745Z,6.80
2018-04-06T04:52:42.103Z,6.80
2018-04-06T04:55:10.593Z,6.80
2018-04-06T04:57:39.376Z,6.80
2018-04-06T05:00:07.748Z,6.70
2018-04-06T05:02:36.123Z,6.60
2018-04-06T05:05:04.600Z,6.60
2018-04-06T05:07:33.748Z,6.60
2018-04-06T05:10:02.217Z,6.60
2018-04-06T05:12:31.379Z,6.70
2018-04-06T05:14:59.800Z,6.70
2018-04-06T05:17:29.004Z,6.80
2018-04-06T05:19:58.183Z,6.80
2018-04-06T05:22:27.352Z,6.90
2018-04-06T05:24:55.741Z,6.80
2018-04-06T05:27:24.168Z,6.90
2018-04-06T05:29:53.286Z,6.90
2018-04-06T05:32:21.710Z,6.90
2018-04-06T05:34:50.828Z,7.00
2018-04-06T05:37:20.080Z,7.10
2018-04-06T05:39:48.897Z,7.10
2018-04-06T05:42:18.051Z,7.10
2018-04-06T05:44:46.467Z,7.10
2018-04-06T05:47:15.974Z,7.20
2018-04-06T05:49:45.122Z,7.30
2018-04-06T05:52:13.560Z,7.20
2018-04-06T05:54:41.938Z,7.30
2018-04-06T05:57:11.435Z,7.40
2018-04-06T05:59:40.718Z,7.50
2018-04-06T06:02:09.077Z,7.50
2018-04-06T06:04:37.457Z,7.50
2018-04-06T06:07:05.857Z,7.50
2018-04-06T06:09:34.247Z,7.60
2018-04-06T06:12:03.356Z,7.60
2018-04-06T06:14:31.783Z,7.60
2018-04-06T06:17:00.283Z,7.60
2018-04-06T06:19:29.146Z,7.70
2018-04-06T06:21:57.696Z,7.60
2018-04-06T06:24:26.138Z,7.60
2018-04-06T06:26:54.527Z,7.60
2018-04-06T06:29:23.706Z,7.80
2018-04-06T06:31:52.053Z,7.80
2018-04-06T06:34:20.508Z,7.90
2018-04-06T06:36:48.999Z,8.00
2018-04-06T06:39:27.988Z,8.40
2018-04-06T06:42:07.436Z,8.40
2018-04-06T06:44:36.668Z,8.70
2018-04-06T06:47:05.072Z,8.90
2018-04-06T06:49:33.532Z,9.10
2018-04-06T06:52:01.905Z,9.30
2018-04-06T06:54:30.529Z,9.50
2018-04-06T06:56:58.895Z,9.60
2018-04-06T06:59:29.680Z,9.70
2018-04-06T07:01:59.750Z,9.80
2018-04-06T07:04:28.198Z,9.90
2018-04-06T07:06:56.575Z,10.00
2018-04-06T07:09:24.966Z,10.10
2018-04-06T07:11:54.109Z,10.10
2018-04-06T07:14:23.279Z,10.20
2018-04-06T07:16:51.650Z,10.20
2018-04-06T07:19:20.052Z,10.50
2018-04-06T07:21:49.199Z,10.70
2018-04-06T07:24:17.591Z,10.70
2018-04-06T07:26:46.679Z,10.60
2018-04-06T07:29:15.083Z,10.60
2018-04-06T07:31:43.460Z,10.90
2018-04-06T07:34:11.857Z,11.00
2018-04-06T07:36:41.148Z,11.10
2018-04-06T07:39:10.448Z,10.90
2018-04-06T07:41:39.581Z,11.00
2018-04-06T07:44:08.204Z,11.00
2018-04-06T07:46:36.583Z,11.10
2018-04-06T07:49:05.426Z,11.30
2018-04-06T07:51:33.824Z,11.50
2018-04-06T07:54:02.212Z,11.80
2018-04-06T07:56:30.585Z,11.90
2018-04-06T07:58:59.008Z,12.00
2018-04-06T08:01:27.354Z,12.40
2018-04-06T08:03:55.768Z,12.50
2018-04-06T08:06:24.957Z,13.10
2018-04-06T08:08:54.217Z,13.20
2018-04-06T08:11:22.605Z,13.20
2018-04-06T08:13:51.065Z,13.30
2018-04-06T08:16:19.486Z,13.50
2018-04-06T08:18:47.883Z,13.50
2018-04-06T08:21:17.030Z,13.40
2018-04-06T08:23:45.420Z,13.40
2018-04-06T08:26:13.837Z,13.50
2018-04-06T08:28:43.532Z,13.60
2018-04-06T08:31:11.988Z,13.50
2018-04-06T08:33:40.356Z,13.60
2018-04-06T08:36:08.827Z,13.80
2018-04-06T08:38:37.216Z,13.90
2018-04-06T08:41:05.605Z,14.10
2018-04-06T08:43:34.746Z,13.90
2018-04-06T08:46:03.148Z,13.90
2018-04-06T08:48:31.567Z,14.00
2018-04-06T08:50:59.966Z,13.80
2018-04-06T08:53:29.110Z,13.80
2018-04-06T08:55:57.489Z,13.80
2018-04-06T08:58:26.643Z,13.90
2018-04-06T09:00:55.137Z,13.90
2018-04-06T09:03:23.524Z,14.10
2018-04-06T09:05:52.712Z,14.20
2018-04-06T09:08:21.844Z,14.70
2018-04-06T09:10:50.260Z,14.70
2018-04-06T09:13:18.685Z,15.00
2018-04-06T09:15:47.070Z,15.10
2018-04-06T09:18:15.798Z,15.10
2018-04-06T09:20:44.196Z,15.10
2018-04-06T09:23:13.714Z,15.10
2018-04-06T09:25:42.456Z,15.00
2018-04-06T09:28:10.831Z,15.20
2018-04-06T09:30:39.203Z,15.20
2018-04-06T09:33:08.200Z,15.40
2018-04-06T09:35:36.820Z,15.50
2018-04-06T09:38:05.945Z,15.70
2018-04-06T09:40:34.331Z,15.70
2018-04-06T09:43:02.775Z,15.80
2018-04-06T09:45:31.317Z,15.90
2018-04-06T09:47:59.720Z,15.90
2018-04-06T09:50:28.892Z,16.00
2018-04-06T09:52:57.317Z,16.00
2018-04-06T09:55:25.718Z,16.00
2018-04-06T09:57:54.068Z,16.10
2018-04-06T10:00:27.992Z,16.00
2018-04-06T10:02:57.265Z,16.20
2018-04-06T10:05:26.438Z,16.40
2018-04-06T10:07:54.908Z,16.40
2018-04-06T10:10:23.316Z,16.30
2018-04-06T10:12:52.438Z,16.30
2018-04-06T10:15:20.857Z,16.30
2018-04-06T10:17:57.369Z,16.30
2018-04-06T10:23:14.775Z,16.30
2018-04-06T10:25:44.267Z,16.40
2018-04-06T10:28:12.848Z,16.60
2018-04-06T10:30:41.265Z,16.70
2018-04-06T10:33:12.527Z,17.00
2018-04-06T10:35:41.689Z,17.00
2018-04-06T10:38:10.272Z,17.00
2018-04-06T10:40:38.646Z,17.10
2018-04-06T10:43:06.996Z,17.20
2018-04-06T10:45:35.379Z,17.40
2018-04-06T10:48:03.820Z,17.50
2018-04-06T10:50:32.208Z,17.50
2018-04-06T10:53:00.604Z,17.40
2018-04-06T10:55:29.172Z,17.50
2018-04-06T10:57:57.534Z,17.50
2018-04-06T11:00:25.907Z,17.50
2018-04-06T11:02:54.362Z,17.70
2018-04-06T11:05:22.740Z,17.90
2018-04-06T11:07:51.896Z,18.30
2018-04-06T11:10:20.288Z,18.20
2018-04-06T11:12:49.560Z,18.40
2018-04-06T11:15:17.955Z,18.40
2018-04-06T11:17:46.403Z,18.20
2018-04-06T11:20:14.794Z,18.00
2018-04-06T11:22:43.196Z,18.00
2018-04-06T11:25:11.991Z,18.10
2018-04-06T11:27:40.454Z,18.30
2018-04-06T11:30:08.819Z,18.40
2018-04-06T11:32:37.220Z,18.30
2018-04-06T11:35:05.634Z,18.30
2018-04-06T11:37:33.993Z,18.20
2018-04-06T11:40:02.703Z,17.90
2018-04-06T11:42:31.831Z,18.20
2018-04-06T11:45:00.493Z,18.20
2018-04-06T11:47:29.010Z,18.50
2018-04-06T11:49:58.144Z,18.50
2018-04-06T11:52:26.804Z,18.50
2018-04-06T11:54:55.964Z,18.40
2018-04-06T11:57:24.329Z,18.40
2018-04-06T11:59:52.746Z,18.30
2018-04-06T12:02:21.140Z,18.50
2018-04-06T12:04:49.698Z,18.80
2018-04-06T12:07:18.336Z,18.80
2018-04-06T12:09:47.468Z,19.20
2018-04-06T12:12:15.857Z,19.20
2018-04-06T12:14:44.255Z,19.40
2018-04-06T12:17:12.887Z,19.50
2018-04-06T12:19:41.504Z,19.60
2018-04-06T12:22:09.932Z,19.40
2018-04-06T12:24:39.063Z,18.90
2018-04-06T12:27:07.601Z,18.90
2018-04-06T12:29:36.004Z,18.60
2018-04-06T12:32:05.260Z,18.60
2018-04-06T12:34:33.622Z,18.60
2018-04-06T12:37:02.022Z,18.80
2018-04-06T12:39:30.383Z,18.80
2018-04-06T12:41:58.786Z,18.40
2018-04-06T12:44:27.164Z,18.30
2018-04-06T12:46:55.568Z,18.50
2018-04-06T12:49:23.943Z,18.60
2018-04-06T12:51:53.442Z,19.20
2018-04-06T12:54:22.576Z,19.30
2018-04-06T12:56:50.935Z,19.30
2018-04-06T12:59:19.348Z,19.20
2018-04-06T13:01:48.476Z,19.70
2018-04-06T13:04:17.624Z,19.70
2018-04-06T13:06:46.036Z,19.70
2018-04-06T13:09:14.429Z,19.60
2018-04-06T13:11:42.961Z,19.40
2018-04-06T13:14:12.687Z,19.50
2018-04-06T13:16:41.759Z,19.50
2018-04-06T13:19:10.756Z,19.60
2018-04-06T13:21:39.440Z,19.30
2018-04-06T13:24:08.725Z,19.60
2018-04-06T13:26:37.103Z,19.60
2018-04-06T13:29:05.545Z,19.70
2018-04-06T13:31:34.156Z,19.90
2018-04-06T13:34:03.672Z,20.10
2018-04-06T13:36:32.106Z,20.20
2018-04-06T13:39:00.583Z,20.30
2018-04-06T13:41:29.435Z,20.40
2018-04-06T13:43:57.850Z,20.40
2018-04-06T13:46:26.732Z,20.30
2018-04-06T13:48:56.667Z,20.20
2018-04-06T13:51:25.848Z,20.10
2018-04-06T13:53:55.581Z,20.20
2018-04-06T13:56:25.639Z,20.50
2018-04-06T13:58:54.094Z,20.50
2018-04-06T14:01:22.488Z,20.40
2018-04-06T14:03:50.892Z,20.30
2018-04-06T14:06:19.409Z,20.30
2018-04-06T14:08:48.575Z,20.00
2018-04-06T14:11:16.920Z,20.00
2018-04-06T14:13:45.487Z,19.90
2018-04-06T14:16:13.868Z,20.00
2018-04-06T14:18:42.237Z,20.00
2018-04-06T14:21:10.618Z,20.10
2018-04-06T14:23:38.995Z,20.00
2018-04-06T14:26:07.536Z,20.00
2018-04-06T14:28:35.943Z,20.00
2018-04-06T14:31:05.100Z,20.00
2018-04-06T14:33:35.252Z,20.00
2018-04-06T14:36:04.483Z,19.90
2018-04-06T14:38:32.926Z,19.80
2018-04-06T14:41:01.449Z,19.80
2018-04-06T14:43:29.813Z,19.90
2018-04-06T14:45:58.204Z,19.90
2018-04-06T14:48:26.607Z,20.10
2018-04-06T14:50:55.020Z,20.20
2018-04-06T14:53:23.449Z,20.20
2018-04-06T14:55:51.872Z,20.20
2018-04-06T14:58:21.022Z,20.00
2018-04-06T15:00:49.649Z,20.00
2018-04-06T15:03:18.062Z,19.90
2018-04-06T15:05:46.723Z,20.00
2018-04-06T15:08:17.027Z,19.70
2018-04-06T15:10:45.458Z,19.60
2018-04-06T15:13:13.890Z,19.60
2018-04-06T15:15:42.308Z,19.50
2018-04-06T15:18:10.768Z,19.50
2018-04-06T15:20:39.971Z,19.70
2018-04-06T15:23:09.270Z,19.80
2018-04-06T15:25:37.654Z,19.80
2018-04-06T15:28:06.024Z,19.80
2018-04-06T15:30:34.404Z,19.80
2018-04-06T15:33:02.875Z,19.70
2018-04-06T15:35:31.478Z,19.70
2018-04-06T15:37:59.852Z,19.70
2018-04-06T15:40:28.264Z,19.70
2018-04-06T15:42:56.640Z,19.60
2018-04-06T15:45:25.123Z,19.40
2018-04-06T15:47:54.252Z,19.40
2018-04-06T15:50:22.704Z,19.40
2018-04-06T15:52:51.893Z,19.40
2018-04-06T15:55:21.092Z,19.20
2018-04-06T15:57:49.449Z,19.20
2018-04-06T16:00:18.399Z,19.10
2018-04-06T16:02:47.549Z,19.10
2018-04-06T16:05:15.938Z,19.10
2018-04-06T16:07:44.337Z,19.20
2018-04-06T16:10:12.761Z,19.20
2018-04-06T16:12:41.128Z,19.20
2018-04-06T16:15:10.275Z,19.10
2018-04-06T16:17:38.656Z,19.10
2018-04-06T16:20:07.027Z,19.00
2018-04-06T16:22:35.407Z,18.90
2018-04-06T16:25:03.810Z,18.80
2018-04-06T16:27:32.197Z,18.90
2018-04-06T16:30:01.425Z,19.00
2018-04-06T16:32:30.025Z,19.00
2018-04-06T16:34:58.423Z,19.00
2018-04-06T16:37:26.801Z,19.10
2018-04-06T16:39:55.235Z,19.00
2018-04-06T16:42:24.437Z,18.90
2018-04-06T16:44:52.835Z,18.80
2018-04-06T16:47:21.231Z,18.90
2018-04-06T16:49:49.596Z,18.80
2018-04-06T16:52:18.476Z,18.70
2018-04-06T16:54:46.898Z,18.70
2018-04-06T16:57:15.335Z,18.70
2018-04-06T16:59:43.745Z,18.60
2018-04-06T17:02:12.151Z,18.50
2018-04-06T17:04:41.293Z,18.70
2018-04-06T17:07:09.693Z,18.70
2018-04-06T17:09:38.101Z,18.70
2018-04-06T17:12:06.483Z,18.70
2018-04-06T17:14:35.603Z,18.50
2018-04-06T17:17:04.076Z,18.60
2018-04-06T17:19:32.496Z,18.50
2018-04-06T17:22:01.645Z,18.40
2018-04-06T17:24:30.878Z,18.30
2018-04-06T17:26:59.260Z,18.30
2018-04-06T17:29:27.636Z,18.30
2018-04-06T17:31:56.017Z,18.20
2018-04-06T17:34:24.381Z,18.20
2018-04-06T17:36:52.807Z,18.20
2018-04-06T17:39:21.196Z,18.10
2018-04-06T17:41:50.496Z,18.00
2018-04-06T17:44:19.698Z,17.90
2018-04-06T17:46:48.997Z,17.80
2018-04-06T17:49:17.356Z,17.90
2018-04-06T17:51:45.749Z,17.80
2018-04-06T17:54:14.904Z,17.80
2018-04-06T17:56:43.302Z,17.80
2018-04-06T17:59:11.693Z,17.70
2018-04-06T18:01:40.908Z,17.60
2018-04-06T18:04:09.284Z,17.60
2018-04-06T18:06:38.728Z,17.40
2018-04-06T18:09:08.009Z,17.40
2018-04-06T18:11:36.524Z,17.40
2018-04-06T18:14:05.156Z,17.30
2018-04-06T18:16:33.585Z,17.20
2018-04-06T18:19:02.327Z,17.20
2018-04-06T18:21:30.736Z,17.10
2018-04-06T18:24:00.150Z,17.20
2018-04-06T18:26:28.560Z,17.10
2018-04-06T18:28:57.707Z,17.00
2018-04-06T18:31:26.193Z,17.00
2018-04-06T18:33:54.568Z,16.90
2018-04-06T18:36:22.950Z,16.90
2018-04-06T18:38:51.362Z,16.90
2018-04-06T18:41:19.759Z,16.90
2018-04-06T18:43:49.088Z,16.80
2018-04-06T18:46:17.500Z,16.80
2018-04-06T18:48:45.873Z,16.70
2018-04-06T18:51:14.269Z,16.70
2018-04-06T18:53:42.656Z,16.60
2018-04-06T18:56:12.004Z,16.60
2018-04-06T18:58:40.433Z,16.60
2018-04-06T19:01:09.041Z,16.60
2018-04-06T19:03:38.293Z,16.50
2018-04-06T19:06:07.428Z,16.40
2018-04-06T19:08:36.702Z,16.40
2018-04-06T19:11:05.591Z,16.40
2018-04-06T19:13:34.006Z,16.40
2018-04-06T19:16:03.373Z,16.40
2018-04-06T19:18:31.713Z,16.30
2018-04-06T19:21:00.133Z,16.30
2018-04-06T19:23:28.500Z,16.30
2018-04-06T19:25:57.236Z,16.20
2018-04-06T19:28:25.846Z,16.20
2018-04-06T19:30:54.233Z,16.20
2018-04-06T19:33:23.418Z,16.20
2018-04-06T19:35:51.800Z,16.20
2018-04-06T19:38:20.214Z,16.10
2018-04-06T19:40:48.564Z,16.10
2018-04-06T19:43:17.072Z,16.10
2018-04-06T19:45:45.470Z,16.10
2018-04-06T19:48:14.629Z,15.90
2018-04-06T19:50:43.792Z,15.80
2018-04-06T19:53:12.179Z,15.80
2018-04-06T19:55:40.536Z,15.70
2018-04-06T19:58:08.943Z,15.60
2018-04-06T20:00:37.416Z,15.50
2018-04-06T20:03:06.223Z,15.50
2018-04-06T20:05:34.983Z,15.50
2018-04-06T20:08:03.363Z,15.40
2018-04-06T20:10:31.764Z,15.20
2018-04-06T20:13:00.171Z,15.10
2018-04-06T20:15:28.604Z,15.10
2018-04-06T20:17:57.035Z,15.10
2018-04-06T20:20:26.705Z,15.00
2018-04-06T20:22:55.108Z,14.90
2018-04-06T20:25:23.990Z,15.00
2018-04-06T20:27:52.408Z,14.90
2018-04-06T20:30:20.762Z,14.90
2018-04-06T20:32:49.954Z,14.90
2018-04-06T20:35:18.343Z,14.90
2018-04-06T20:37:46.893Z,14.90
2018-04-06T20:40:15.325Z,14.90
2018-04-06T20:42:43.683Z,14.80
2018-04-06T20:45:12.841Z,14.60
2018-04-06T20:47:41.210Z,14.60
2018-04-06T20:50:09.605Z,14.50
2018-04-06T20:52:37.963Z,14.50
2018-04-06T20:55:06.418Z,14.50
2018-04-06T20:57:34.787Z,14.50
2018-04-06T21:00:03.632Z,14.50
2018-04-06T21:02:38.008Z,14.50
2018-04-06T21:05:12.248Z,14.50
2018-04-06T21:07:47.422Z,14.50
2018-04-06T21:10:21.839Z,14.50
2018-04-06T21:12:56.156Z,14.50
2018-04-06T21:15:30.538Z,14.60
2018-04-06T21:18:04.803Z,14.50
2018-04-06T21:20:39.187Z,14.30
2018-04-06T21:23:13.601Z,14.30
2018-04-06T21:25:47.934Z,14.30
2018-04-06T21:28:16.283Z,14.10
2018-04-06T21:30:44.672Z,14.00
2018-04-06T21:33:13.863Z,14.00
2018-04-06T21:35:42.234Z,14.00
2018-04-06T21:38:10.615Z,14.00
2018-04-06T21:40:38.988Z,14.10
2018-04-06T21:43:07.417Z,13.80
2018-04-06T21:45:35.765Z,13.90
2018-04-06T21:48:05.783Z,13.80
2018-04-06T21:50:34.955Z,13.60
2018-04-06T21:53:03.354Z,13.60
2018-04-06T21:55:31.723Z,13.60
2018-04-06T21:58:00.139Z,13.60
2018-04-06T22:00:28.853Z,13.60
2018-04-06T22:02:57.258Z,13.50
2018-04-06T22:05:25.622Z,13.40
2018-04-06T22:07:54.011Z,13.50
2018-04-06T22:10:22.520Z,13.50
2018-04-06T22:12:50.888Z,13.50
2018-04-06T22:15:20.117Z,13.60
2018-04-06T22:17:48.503Z,13.50
2018-04-06T22:20:16.902Z,13.50
2018-04-06T22:22:45.299Z,13.50
2018-04-06T22:25:13.805Z,13.40
2018-04-06T22:27:42.175Z,13.40
2018-04-06T22:30:11.423Z,13.30
2018-04-06T22:32:39.815Z,13.30
2018-04-06T22:35:08.682Z,13.20
2018-04-06T22:37:37.079Z,13.20
2018-04-06T22:40:07.236Z,13.10
2018-04-06T22:42:36.383Z,13.30
2018-04-06T22:45:04.770Z,13.20
2018-04-06T22:47:33.146Z,13.30
2018-04-06T22:50:02.537Z,13.20
2018-04-06T22:52:30.905Z,13.20
2018-04-06T22:54:59.279Z,13.20
2018-04-06T22:57:27.747Z,13.10
2018-04-06T22:59:56.886Z,13.10
2018-04-06T23:02:25.312Z,13.10
2018-04-06T23:04:53.692Z,13.10
2018-04-06T23:07:22.081Z,13.10
2018-04-06T23:09:50.769Z,13.20
2018-04-06T23:12:19.302Z,13.20
2018-04-06T23:14:47.675Z,13.20
2018-04-06T23:17:16.144Z,13.20
2018-04-06T23:19:45.309Z,13.20
2018-04-06T23:22:13.675Z,13.20
2018-04-06T23:24:42.071Z,13.10
2018-04-06T23:27:10.785Z,13.20
2018-04-06T23:29:40.002Z,13.10
2018-04-06T23:32:08.372Z,13.10
2018-04-06T23:34:37.099Z,13.10
2018-04-06T23:37:05.486Z,13.10
2018-04-06T23:39:33.870Z,13.10
2018-04-06T23:42:02.327Z,13.10
2018-04-06T23:44:31.236Z,13.00
2018-04-06T23:46:59.704Z,13.00
2018-04-06T23:49:28.093Z,13.00
2018-04-06T23:51:56.467Z,13.10
2018-04-06T23:54:24.846Z,13.10
2018-04-06T23:56:53.234Z,13.00
2018-04-06T23:59:22.371Z,12.90
